Time;durP1;ratioP1;P1;durP2;ratioP2;P2;SDS_P1;SDS_P2;PMS_P1;PMS_P2;Temp;Humidity;BMP_temperature;BMP_pressure;BME280_temperature;BME280_humidity;BME280_pressure;Samples;Min_cycle;Max_cycle;Signal;HPM_P1;HPM_P2
2023/01/07 00:01:15;;;;;;;3.23;3.13;;;12.80;99.90;;;;;;5050000;28;20482;-63
2023/01/07 00:03:41;;;;;;;2.93;2.83;;;12.90;99.90;;;;;;5051974;28;20979;-63
2023/01/07 00:06:11;;;;;;;2.70;2.70;;;12.90;99.90;;;;;;5051257;28;20433;-67
2023/01/07 00:08:39;;;;;;;3.27;3.17;;;12.90;99.90;;;;;;5050900;28;20952;-63
2023/01/07 00:11:07;;;;;;;3.60;3.50;;;12.90;99.90;;;;;;5051922;28;20436;-68
2023/01/07 00:13:34;;;;;;;3.43;3.33;;;13.00;99.90;;;;;;5051855;28;20419;-64
2023/01/07 00:16:02;;;;;;;3.17;3.07;;;13.00;99.90;;;;;;5050872;28;20433;-65
2023/01/07 00:18:28;;;;;;;3.17;3.00;;;13.00;99.90;;;;;;5049416;28;20441;-64
2023/01/07 00:21:03;;;;;;;3.57;3.37;;;13.00;99.90;;;;;;5052982;28;20407;-65
2023/01/07 00:23:29;;;;;;;3.60;3.47;;;13.00;99.90;;;;;;5051360;28;20287;-65
2023/01/07 00:26:00;;;;;;;3.30;3.20;;;13.10;99.90;;;;;;5051922;28;20443;-65
2023/01/07 00:28:26;;;;;;;3.63;3.53;;;13.00;99.90;;;;;;5050883;28;21037;-65
2023/01/07 00:30:57;;;;;;;3.70;3.50;;;13.00;99.90;;;;;;5050284;28;20443;-65
2023/01/07 00:33:27;;;;;;;3.77;3.67;;;12.90;99.90;;;;;;5050877;28;20545;-65
2023/01/07 00:36:07;;;;;;;3.80;3.70;;;13.00;99.90;;;;;;5050756;28;20454;-63
2023/01/07 00:38:33;;;;;;;3.43;3.33;;;13.00;99.90;;;;;;5051327;28;20908;-63
2023/01/07 00:40:59;;;;;;;3.40;3.30;;;13.10;99.90;;;;;;5032584;28;20483;-63
2023/01/07 00:43:25;;;;;;;3.33;3.23;;;13.10;99.90;;;;;;5040728;28;20481;-63
2023/01/07 00:45:51;;;;;;;3.50;3.40;;;13.10;99.90;;;;;;5051551;28;20429;-63
2023/01/07 00:48:17;;;;;;;3.60;3.50;;;13.00;99.90;;;;;;5051551;28;20457;-63
2023/01/07 00:50:45;;;;;;;3.00;2.90;;;13.00;99.90;;;;;;5050075;28;20545;-64
2023/01/07 00:53:11;;;;;;;3.10;3.00;;;13.10;99.90;;;;;;5049846;28;20961;-65
2023/01/07 00:55:37;;;;;;;3.10;3.00;;;13.10;99.90;;;;;;5051749;28;20428;-64
2023/01/07 00:58:03;;;;;;;3.40;3.20;;;13.00;99.90;;;;;;5051163;28;20423;-64
2023/01/07 01:00:29;;;;;;;2.80;2.70;;;13.00;99.90;;;;;;5050468;28;20443;-64
2023/01/07 01:02:55;;;;;;;3.20;3.10;;;13.00;99.90;;;;;;5049688;28;20190;-64
2023/01/07 01:05:21;;;;;;;3.40;3.30;;;13.10;99.90;;;;;;5051368;28;20181;-64
2023/01/07 01:07:48;;;;;;;2.93;2.83;;;13.10;99.90;;;;;;5051142;28;20182;-64
2023/01/07 01:10:16;;;;;;;3.10;3.00;;;13.10;99.90;;;;;;5047394;28;20447;-64
2023/01/07 01:12:42;;;;;;;3.10;2.90;;;13.00;99.90;;;;;;5049974;28;20784;-64
2023/01/07 01:15:11;;;;;;;2.83;2.73;;;13.00;99.90;;;;;;5048367;28;20839;-68
2023/01/07 01:17:37;;;;;;;2.90;2.80;;;13.00;99.90;;;;;;5051292;28;20442;-64
2023/01/07 01:20:04;;;;;;;2.83;2.73;;;13.00;99.90;;;;;;5049268;28;20512;-64
2023/01/07 01:22:30;;;;;;;2.60;2.50;;;13.10;99.90;;;;;;5050096;28;20914;-64
2023/01/07 01:24:56;;;;;;;2.60;2.43;;;13.10;99.90;;;;;;5051844;28;20416;-64
2023/01/07 01:27:21;;;;;;;2.37;2.27;;;13.10;99.90;;;;;;5050203;28;20184;-64
2023/01/07 01:29:47;;;;;;;2.50;2.40;;;13.00;99.90;;;;;;5051042;28;20205;-64
2023/01/07 01:32:13;;;;;;;2.43;2.33;;;13.00;99.90;;;;;;5049485;28;20188;-64
2023/01/07 01:34:38;;;;;;;2.30;2.30;;;13.00;99.90;;;;;;5048887;28;20183;-64
2023/01/07 01:37:04;;;;;;;2.47;2.40;;;13.10;99.90;;;;;;5044943;28;20207;-64
2023/01/07 01:39:30;;;;;;;2.60;2.50;;;13.30;99.90;;;;;;5048128;28;20194;-64
2023/01/07 01:41:55;;;;;;;2.93;2.83;;;13.10;99.90;;;;;;5051981;28;20191;-64
2023/01/07 01:44:40;;;;;;;2.57;2.47;;;13.10;99.90;;;;;;5049586;28;20178;-64
2023/01/07 01:47:37;;;;;;;2.90;2.70;;;13.10;99.90;;;;;;5052131;28;20180;-64
2023/01/07 01:50:21;;;;;;;2.90;2.80;;;13.20;99.90;;;;;;5051468;28;20451;-64
2023/01/07 01:52:55;;;;;;;2.63;2.60;;;13.20;99.90;;;;;;5051794;28;20728;-64
2023/01/07 01:55:27;;;;;;;2.63;2.53;;;13.30;99.90;;;;;;5051552;28;20804;-64
2023/01/07 01:57:58;;;;;;;2.60;2.50;;;13.30;99.90;;;;;;5056062;28;20405;-64
2023/01/07 02:00:24;;;;;;;2.40;2.33;;;13.40;99.90;;;;;;5054683;28;20399;-64
2023/01/07 02:02:55;;;;;;;2.50;2.40;;;13.40;99.90;;;;;;5055434;28;20771;-64
2023/01/07 02:05:27;;;;;;;2.20;2.07;;;13.40;99.90;;;;;;5052491;28;20545;-64
2023/01/07 02:07:53;;;;;;;2.30;2.20;;;13.40;99.90;;;;;;5055437;28;20391;-64
2023/01/07 02:10:21;;;;;;;2.40;2.30;;;13.40;99.90;;;;;;5052269;28;20447;-64
2023/01/07 02:13:09;;;;;;;2.43;2.33;;;13.40;99.90;;;;;;5054202;28;20179;-63
2023/01/07 02:15:43;;;;;;;2.00;2.00;;;13.40;99.90;;;;;;5054311;28;20569;-63
2023/01/07 02:18:23;;;;;;;2.53;2.30;;;13.30;99.90;;;;;;5053145;28;20805;-63
2023/01/07 02:21:04;;;;;;;2.10;2.10;;;13.30;99.90;;;;;;5055222;28;20417;-64
2023/01/07 02:23:49;;;;;;;2.27;2.17;;;13.20;99.90;;;;;;5054211;28;20400;-64
2023/01/07 02:26:40;;;;;;;2.40;2.30;;;13.20;99.90;;;;;;5054541;28;20754;-69
2023/01/07 02:29:20;;;;;;;2.47;2.37;;;13.10;99.90;;;;;;5055292;28;20449;-63
2023/01/07 02:32:05;;;;;;;2.40;2.30;;;13.20;99.90;;;;;;5052848;28;20490;-63
2023/01/07 02:35:03;;;;;;;2.47;2.40;;;13.00;99.90;;;;;;5053086;28;20396;-64
2023/01/07 02:37:54;;;;;;;2.40;2.30;;;13.00;99.90;;;;;;5054180;28;20402;-64
2023/01/07 02:40:32;;;;;;;2.40;2.30;;;13.00;99.90;;;;;;5052899;28;20476;-64
2023/01/07 02:43:21;;;;;;;2.37;2.37;;;13.00;99.90;;;;;;5055279;28;20450;-64
2023/01/07 02:45:48;;;;;;;2.60;2.50;;;13.10;99.90;;;;;;5054937;28;20405;-64
2023/01/07 02:48:18;;;;;;;2.33;2.33;;;13.00;99.90;;;;;;5051011;28;20463;-68
2023/01/07 02:50:43;;;;;;;2.60;2.50;;;13.00;99.90;;;;;;5054940;28;20422;-64
2023/01/07 02:53:13;;;;;;;2.90;2.70;;;13.10;99.90;;;;;;5054686;28;20412;-64
2023/01/07 02:56:04;;;;;;;2.80;2.70;;;13.00;99.90;;;;;;5052963;28;20259;-63
2023/01/07 02:59:01;;;;;;;2.97;2.77;;;12.90;99.90;;;;;;5052072;28;22605;-64
2023/01/07 03:01:48;;;;;;;2.33;2.30;;;12.90;99.90;;;;;;5053827;28;20409;-63
2023/01/07 03:05:01;;;;;;;3.30;3.00;;;12.90;99.90;;;;;;5054243;28;20398;-68
2023/01/07 03:07:59;;;;;;;3.00;2.90;;;12.90;99.90;;;;;;5041240;28;20442;-64
2023/01/07 03:10:29;;;;;;;2.10;2.00;;;12.90;99.90;;;;;;5047840;28;20461;-64
2023/01/07 03:13:02;;;;;;;2.13;2.13;;;13.00;99.90;;;;;;5054269;28;20428;-64
2023/01/07 03:15:38;;;;;;;2.30;2.10;;;13.10;99.90;;;;;;5051498;28;20826;-65
2023/01/07 03:18:28;;;;;;;2.20;2.10;;;13.00;99.90;;;;;;5054253;28;20421;-64
2023/01/07 03:21:02;;;;;;;2.60;2.50;;;12.90;99.90;;;;;;5054212;28;20502;-64
2023/01/07 03:23:29;;;;;;;2.70;2.60;;;12.90;99.90;;;;;;5053329;28;20405;-64
2023/01/07 03:25:59;;;;;;;2.47;2.37;;;12.80;99.90;;;;;;5052364;28;20430;-64
2023/01/07 03:28:29;;;;;;;2.27;2.20;;;12.80;99.90;;;;;;5048602;28;20475;-64
2023/01/07 03:30:56;;;;;;;2.90;2.80;;;12.80;99.90;;;;;;5052135;28;20502;-63
2023/01/07 03:33:45;;;;;;;2.07;2.03;;;12.80;99.90;;;;;;5053019;28;20414;-64
2023/01/07 03:36:15;;;;;;;2.50;2.40;;;12.90;99.90;;;;;;5053515;28;20496;-64
2023/01/07 03:38:42;;;;;;;2.83;2.73;;;12.90;99.90;;;;;;5053236;28;20418;-64
2023/01/07 03:41:07;;;;;;;2.67;2.57;;;12.90;99.90;;;;;;5052680;28;20510;-64
2023/01/07 03:43:33;;;;;;;2.70;2.50;;;12.90;99.90;;;;;;5068283;28;20420;-64
2023/01/07 03:45:59;;;;;;;2.20;2.10;;;12.80;99.90;;;;;;5051137;28;20607;-64
2023/01/07 03:48:25;;;;;;;2.30;2.23;;;12.80;99.90;;;;;;5052834;28;20215;-64
2023/01/07 03:50:51;;;;;;;2.73;2.63;;;12.70;99.90;;;;;;5053528;28;20976;-64
2023/01/07 03:53:16;;;;;;;3.00;2.80;;;12.70;99.90;;;;;;5051035;28;20259;-67
2023/01/07 03:55:42;;;;;;;2.70;2.60;;;12.80;99.90;;;;;;5052888;28;20582;-64
2023/01/07 03:58:07;;;;;;;2.73;2.63;;;12.80;99.90;;;;;;5053474;28;20252;-64
2023/01/07 04:00:33;;;;;;;2.80;2.60;;;12.60;99.90;;;;;;5052294;28;20198;-64
2023/01/07 04:02:59;;;;;;;3.00;2.90;;;12.60;99.90;;;;;;5053369;28;20176;-64
2023/01/07 04:05:25;;;;;;;2.90;2.80;;;12.60;99.90;;;;;;5052559;28;20182;-64
2023/01/07 04:07:50;;;;;;;3.00;2.90;;;12.60;99.90;;;;;;5053145;28;20582;-64
2023/01/07 04:10:16;;;;;;;3.13;2.93;;;12.60;99.90;;;;;;5034511;28;20221;-64
2023/01/07 04:12:42;;;;;;;2.90;2.80;;;12.40;99.90;;;;;;5052438;28;20177;-64
2023/01/07 04:15:08;;;;;;;2.67;2.57;;;12.60;99.90;;;;;;5052008;28;20523;-64
2023/01/07 04:17:33;;;;;;;3.10;3.00;;;12.60;99.90;;;;;;5050723;28;20174;-64
2023/01/07 04:19:59;;;;;;;3.17;2.97;;;12.60;99.90;;;;;;5050553;28;20442;-64
2023/01/07 04:22:25;;;;;;;3.27;3.07;;;12.50;99.90;;;;;;5052141;28;20188;-63
2023/01/07 04:24:50;;;;;;;2.97;2.87;;;12.50;99.90;;;;;;5052924;28;20165;-64
2023/01/07 04:27:16;;;;;;;3.00;2.90;;;12.40;99.90;;;;;;5052919;28;20295;-64
2023/01/07 04:29:44;;;;;;;3.17;2.90;;;12.50;99.90;;;;;;5051784;28;20207;-63
2023/01/07 04:32:10;;;;;;;2.90;2.80;;;12.60;99.90;;;;;;5052895;28;20267;-63
2023/01/07 04:34:36;;;;;;;2.90;2.80;;;12.60;99.90;;;;;;5050496;28;20492;-63
2023/01/07 04:37:01;;;;;;;3.20;3.10;;;12.60;99.90;;;;;;5053188;28;20449;-63
2023/01/07 04:39:27;;;;;;;2.90;2.70;;;12.60;99.90;;;;;;5049185;28;20182;-64
2023/01/07 04:41:53;;;;;;;2.50;2.40;;;12.60;99.90;;;;;;5052613;28;20163;-63
2023/01/07 04:44:19;;;;;;;4.17;3.93;;;12.60;99.90;;;;;;5052720;28;20178;-63
2023/01/07 04:46:44;;;;;;;2.90;2.80;;;12.50;99.90;;;;;;5051102;28;20178;-68
2023/01/07 04:49:10;;;;;;;3.40;3.27;;;12.40;99.90;;;;;;5050973;28;20212;-64
2023/01/07 04:51:36;;;;;;;3.00;2.90;;;12.40;99.90;;;;;;5051765;28;20170;-64
2023/01/07 04:54:02;;;;;;;2.97;2.87;;;12.40;99.90;;;;;;5052629;28;20465;-63
2023/01/07 04:56:27;;;;;;;3.50;3.30;;;12.50;99.90;;;;;;5051729;28;20175;-64
2023/01/07 04:58:53;;;;;;;3.10;3.00;;;12.60;99.90;;;;;;5051387;28;20180;-63
2023/01/07 05:01:19;;;;;;;3.33;3.20;;;12.50;99.90;;;;;;5050669;28;20191;-63
2023/01/07 05:03:44;;;;;;;3.23;3.13;;;12.60;99.90;;;;;;5051537;28;20708;-63
2023/01/07 05:06:10;;;;;;;3.60;3.30;;;12.50;99.90;;;;;;5050788;28;20185;-63
2023/01/07 05:08:36;;;;;;;3.37;3.17;;;12.50;99.90;;;;;;5051074;28;20270;-63
2023/01/07 05:11:03;;;;;;;3.20;3.10;;;12.50;99.90;;;;;;5051039;28;20515;-64
2023/01/07 05:13:30;;;;;;;3.50;3.40;;;12.50;99.90;;;;;;5050199;28;20214;-64
2023/01/07 05:15:56;;;;;;;3.23;3.10;;;12.60;99.90;;;;;;5049885;28;20428;-64
2023/01/07 05:18:21;;;;;;;3.00;2.90;;;12.50;99.90;;;;;;5050883;28;20420;-68
2023/01/07 05:20:47;;;;;;;2.90;2.80;;;12.60;99.90;;;;;;5051299;28;20537;-63
2023/01/07 05:23:13;;;;;;;2.80;2.70;;;12.60;99.90;;;;;;5050957;28;20166;-63
2023/01/07 05:25:39;;;;;;;2.90;2.80;;;12.70;99.90;;;;;;5049823;28;20199;-64
2023/01/07 05:28:04;;;;;;;2.93;2.83;;;12.70;99.90;;;;;;5051429;28;20256;-68
2023/01/07 05:30:30;;;;;;;2.97;2.87;;;12.80;99.90;;;;;;5051842;28;20181;-64
2023/01/07 05:32:56;;;;;;;2.80;2.60;;;12.60;99.90;;;;;;5054101;28;20178;-63
2023/01/07 05:35:22;;;;;;;2.60;2.50;;;12.60;99.90;;;;;;5055948;28;20169;-64
2023/01/07 05:37:47;;;;;;;2.80;2.70;;;12.60;99.90;;;;;;5054308;28;20597;-64
2023/01/07 05:40:13;;;;;;;3.00;2.90;;;12.60;99.90;;;;;;5055823;28;20230;-64
2023/01/07 05:42:39;;;;;;;3.47;3.27;;;12.60;99.90;;;;;;5053298;28;20185;-63
2023/01/07 05:45:05;;;;;;;3.87;3.67;;;12.30;99.90;;;;;;5052915;28;20596;-63
2023/01/07 05:47:31;;;;;;;4.70;3.30;;;12.40;99.90;;;;;;5053082;28;20185;-64
2023/01/07 05:49:57;;;;;;;3.50;3.30;;;12.40;99.90;;;;;;5048070;28;20551;-64
2023/01/07 05:52:22;;;;;;;3.50;3.30;;;12.50;99.90;;;;;;5055386;28;20698;-63
2023/01/07 05:54:48;;;;;;;4.10;3.90;;;12.50;99.90;;;;;;5055155;28;20182;-64
2023/01/07 05:57:14;;;;;;;4.43;4.13;;;12.50;99.90;;;;;;5055956;28;20183;-64
2023/01/07 05:59:39;;;;;;;4.20;3.90;;;12.50;99.90;;;;;;5054375;28;20204;-64
2023/01/07 06:02:05;;;;;;;4.57;4.27;;;12.50;99.90;;;;;;5054745;28;20175;-64
2023/01/07 06:04:32;;;;;;;3.90;3.60;;;12.50;99.90;;;;;;5053883;28;20181;-64
2023/01/07 06:06:58;;;;;;;3.90;3.70;;;12.30;99.90;;;;;;5055589;28;20174;-63
2023/01/07 06:09:24;;;;;;;3.50;3.37;;;12.20;99.90;;;;;;5072307;28;20829;-63
2023/01/07 06:11:50;;;;;;;4.00;3.70;;;12.30;99.90;;;;;;5047596;28;20558;-64
2023/01/07 06:14:15;;;;;;;4.00;3.80;;;12.40;99.90;;;;;;5058738;28;20185;-64
2023/01/07 06:16:41;;;;;;;3.97;3.50;;;12.40;99.90;;;;;;5055651;28;20200;-64
2023/01/07 06:19:07;;;;;;;3.40;3.20;;;12.40;99.90;;;;;;5054491;28;20177;-64
2023/01/07 06:21:32;;;;;;;3.70;3.50;;;12.50;99.90;;;;;;5054519;28;20253;-64
2023/01/07 06:23:58;;;;;;;4.83;4.30;;;12.60;99.90;;;;;;5055395;28;20531;-63
2023/01/07 06:26:24;;;;;;;4.50;4.20;;;12.50;99.90;;;;;;5055246;28;20182;-64
2023/01/07 06:28:52;;;;;;;3.73;3.50;;;12.50;99.90;;;;;;5054379;28;20298;-64
2023/01/07 06:31:18;;;;;;;4.27;3.87;;;12.70;99.90;;;;;;5059459;28;20181;-64
2023/01/07 06:33:44;;;;;;;3.63;3.37;;;12.60;99.90;;;;;;5051497;28;20434;-64
2023/01/07 06:36:10;;;;;;;4.10;3.80;;;12.60;99.90;;;;;;5049560;28;20264;-64
2023/01/07 06:38:36;;;;;;;2.83;2.73;;;12.50;99.90;;;;;;5050940;28;20518;-64
2023/01/07 06:41:04;;;;;;;4.80;4.40;;;12.60;99.90;;;;;;5061938;28;20468;-64
2023/01/07 06:43:30;;;;;;;5.47;4.97;;;12.60;99.90;;;;;;5044404;28;20446;-64
2023/01/07 06:45:55;;;;;;;3.20;3.10;;;12.70;99.90;;;;;;5034847;28;20390;-64
2023/01/07 06:48:21;;;;;;;4.23;4.00;;;12.60;99.90;;;;;;5050723;28;20199;-64
2023/01/07 06:50:47;;;;;;;6.20;5.33;;;12.50;99.90;;;;;;5063056;28;20255;-64
2023/01/07 06:53:15;;;;;;;4.40;4.10;;;12.50;99.90;;;;;;5044966;28;20255;-63
2023/01/07 06:55:47;;;;;;;3.73;3.53;;;12.30;99.90;;;;;;5038356;28;20178;-63
2023/01/07 06:58:13;;;;;;;5.47;5.00;;;12.30;99.90;;;;;;5039303;28;20937;-65
2023/01/07 07:00:39;;;;;;;4.43;4.13;;;12.40;99.90;;;;;;5068432;28;20434;-64
2023/01/07 07:03:04;;;;;;;3.67;3.40;;;12.40;99.90;;;;;;5064773;28;20201;-64
2023/01/07 07:05:30;;;;;;;3.60;3.40;;;12.50;99.90;;;;;;5053754;28;20582;-68
2023/01/07 07:07:56;;;;;;;3.07;2.87;;;12.60;99.90;;;;;;5053966;28;20629;-63
2023/01/07 07:10:21;;;;;;;4.20;3.90;;;12.50;99.90;;;;;;5051412;28;20178;-64
2023/01/07 07:12:47;;;;;;;3.80;3.60;;;12.40;99.90;;;;;;5052330;28;20186;-64
2023/01/07 07:15:13;;;;;;;5.87;4.03;;;12.30;99.90;;;;;;5042074;28;20195;-63
2023/01/07 07:17:39;;;;;;;3.80;3.60;;;12.20;99.90;;;;;;5049573;28;20182;-64
2023/01/07 07:20:05;;;;;;;5.17;4.40;;;12.20;99.90;;;;;;5045606;28;20581;-64
2023/01/07 07:22:30;;;;;;;5.27;4.77;;;12.20;99.90;;;;;;5049629;28;20201;-68
2023/01/07 07:24:56;;;;;;;3.50;3.30;;;12.40;99.90;;;;;;5052538;28;20529;-63
2023/01/07 07:27:22;;;;;;;4.23;3.93;;;12.40;99.90;;;;;;5051934;28;20181;-63
2023/01/07 07:29:48;;;;;;;3.70;3.50;;;12.20;99.90;;;;;;5052255;28;20201;-63
2023/01/07 07:32:13;;;;;;;4.60;4.30;;;12.20;99.90;;;;;;5055258;28;20918;-64
2023/01/07 07:34:39;;;;;;;4.00;3.70;;;12.30;99.90;;;;;;5050495;28;20553;-64
2023/01/07 07:37:05;;;;;;;3.30;3.20;;;12.30;99.90;;;;;;5047928;28;20191;-63
2023/01/07 07:39:30;;;;;;;4.33;4.13;;;12.10;99.90;;;;;;5049018;28;20231;-66
2023/01/07 07:41:56;;;;;;;3.57;3.37;;;12.30;99.90;;;;;;5048704;28;20185;-64
2023/01/07 07:44:22;;;;;;;2.93;2.83;;;12.40;99.90;;;;;;5042694;28;20182;-64
2023/01/07 07:46:48;;;;;;;3.50;3.40;;;12.40;99.90;;;;;;5041233;28;20244;-64
2023/01/07 07:49:13;;;;;;;3.50;3.40;;;12.50;99.90;;;;;;5052991;28;20499;-64
2023/01/07 07:51:39;;;;;;;3.20;3.10;;;12.50;99.90;;;;;;5047037;28;20186;-64
2023/01/07 07:54:05;;;;;;;3.10;3.00;;;12.50;99.90;;;;;;5038577;28;20189;-63
2023/01/07 07:56:31;;;;;;;3.10;3.00;;;12.40;99.90;;;;;;5049574;28;20660;-70
2023/01/07 07:58:57;;;;;;;3.00;2.83;;;12.50;99.90;;;;;;5048050;28;20635;-64
2023/01/07 08:01:22;;;;;;;3.53;3.43;;;12.60;99.90;;;;;;5041886;28;20427;-64
2023/01/07 08:03:48;;;;;;;3.33;3.23;;;12.50;99.90;;;;;;5039597;28;20187;-64
2023/01/07 08:06:14;;;;;;;3.37;3.17;;;12.50;99.90;;;;;;5043497;28;20204;-64
2023/01/07 08:08:41;;;;;;;3.00;2.90;;;12.60;99.90;;;;;;5047231;28;20225;-64
2023/01/07 08:11:07;;;;;;;3.60;3.30;;;12.60;99.90;;;;;;5046769;28;20650;-64
2023/01/07 08:13:32;;;;;;;3.37;3.27;;;12.60;99.90;;;;;;5051538;28;20458;-70
2023/01/07 08:15:58;;;;;;;2.80;2.70;;;12.60;99.90;;;;;;5051965;28;20279;-64
2023/01/07 08:18:24;;;;;;;2.90;2.80;;;12.60;99.90;;;;;;5053488;28;20190;-64
2023/01/07 08:20:50;;;;;;;2.70;2.60;;;12.50;99.90;;;;;;5052779;28;20173;-66
2023/01/07 08:23:16;;;;;;;2.97;2.83;;;12.30;99.90;;;;;;5053466;28;20261;-66
2023/01/07 08:25:42;;;;;;;6.53;3.33;;;12.30;99.90;;;;;;5051437;28;20423;-67
2023/01/07 08:28:09;;;;;;;3.00;2.90;;;12.30;99.90;;;;;;5055394;28;20532;-66
2023/01/07 08:30:35;;;;;;;3.30;3.20;;;12.60;99.90;;;;;;5052596;28;20268;-67
2023/01/07 08:33:04;;;;;;;2.60;2.50;;;12.80;99.90;;;;;;5051835;28;20836;-66
2023/01/07 08:35:30;;;;;;;2.90;2.70;;;13.00;99.90;;;;;;5053242;28;20420;-66
2023/01/07 08:38:05;;;;;;;2.77;2.67;;;13.00;99.90;;;;;;5036218;28;20423;-64
2023/01/07 08:40:31;;;;;;;2.80;2.70;;;13.20;99.90;;;;;;5031827;28;20474;-64
2023/01/07 08:43:01;;;;;;;2.57;2.47;;;13.20;99.90;;;;;;5032517;28;20436;-64
2023/01/07 08:45:27;;;;;;;3.00;2.80;;;13.00;99.90;;;;;;5045591;28;20416;-63
2023/01/07 08:47:56;;;;;;;2.63;2.53;;;13.00;99.90;;;;;;5052327;28;20498;-64
2023/01/07 08:50:23;;;;;;;2.60;2.50;;;12.90;99.90;;;;;;5052877;28;20404;-64
2023/01/07 08:52:49;;;;;;;2.23;2.17;;;13.00;99.90;;;;;;5052350;28;20443;-64
2023/01/07 08:55:15;;;;;;;2.87;2.70;;;13.00;99.90;;;;;;5050359;28;20457;-64
2023/01/07 08:57:41;;;;;;;2.80;2.70;;;12.90;99.90;;;;;;5051102;28;20426;-64
2023/01/07 09:00:07;;;;;;;2.60;2.50;;;13.00;99.90;;;;;;5052746;28;20191;-64
2023/01/07 09:02:32;;;;;;;2.60;2.50;;;13.00;99.90;;;;;;5052383;28;20183;-64
2023/01/07 09:04:58;;;;;;;2.80;2.70;;;13.10;99.90;;;;;;5051999;28;20497;-64
2023/01/07 09:07:24;;;;;;;3.70;3.60;;;13.10;99.90;;;;;;5051047;28;20174;-64
2023/01/07 09:09:49;;;;;;;2.50;2.40;;;12.90;99.90;;;;;;5051161;28;20221;-64
2023/01/07 09:12:15;;;;;;;2.60;2.50;;;12.80;99.90;;;;;;5051965;28;20612;-64
2023/01/07 09:14:41;;;;;;;2.67;2.57;;;12.60;99.90;;;;;;5051684;28;20207;-64
2023/01/07 09:17:07;;;;;;;2.53;2.43;;;12.60;99.90;;;;;;5052644;28;20174;-64
2023/01/07 09:19:32;;;;;;;2.67;2.57;;;12.50;99.90;;;;;;5052504;28;20528;-64
2023/01/07 09:21:58;;;;;;;2.30;2.30;;;12.40;99.90;;;;;;5051946;28;20173;-64
2023/01/07 09:24:24;;;;;;;2.30;2.20;;;12.30;99.90;;;;;;5052332;28;20254;-64
2023/01/07 09:26:49;;;;;;;4.23;2.90;;;12.30;99.90;;;;;;5051605;28;20169;-64
2023/01/07 09:29:15;;;;;;;2.87;2.67;;;12.30;99.90;;;;;;5052433;28;20284;-64
2023/01/07 09:31:41;;;;;;;2.73;2.63;;;12.40;99.90;;;;;;5050442;28;20199;-64
2023/01/07 09:34:07;;;;;;;2.60;2.40;;;12.50;99.90;;;;;;5052431;28;20895;-64
2023/01/07 09:36:33;;;;;;;2.50;2.30;;;12.60;99.90;;;;;;5050766;28;20179;-64
2023/01/07 09:38:59;;;;;;;2.70;2.60;;;12.70;99.90;;;;;;5049684;28;20546;-64
2023/01/07 09:41:37;;;;;;;2.93;2.83;;;12.70;99.90;;;;;;5052670;28;20553;-64
2023/01/07 09:44:31;;;;;;;2.93;2.83;;;12.70;99.90;;;;;;5052303;28;20404;-64
2023/01/07 09:46:58;;;;;;;3.20;3.00;;;12.70;99.90;;;;;;5050504;28;20436;-65
2023/01/07 09:49:28;;;;;;;3.10;2.90;;;12.70;99.90;;;;;;5051954;28;20456;-64
2023/01/07 09:52:05;;;;;;;3.77;3.57;;;12.80;99.90;;;;;;5051813;28;20420;-65
2023/01/07 09:54:36;;;;;;;3.57;3.37;;;12.80;99.90;;;;;;5032429;28;20485;-64
2023/01/07 09:57:02;;;;;;;3.63;3.53;;;12.80;99.90;;;;;;5031776;28;20492;-64
2023/01/07 09:59:28;;;;;;;3.43;3.27;;;12.60;99.90;;;;;;5032020;28;20463;-64
2023/01/07 10:02:30;;;;;;;3.17;3.07;;;12.60;99.90;;;;;;5031698;28;20867;-64
2023/01/07 10:05:11;;;;;;;3.30;3.20;;;12.70;99.90;;;;;;5052369;28;20404;-64
2023/01/07 10:07:44;;;;;;;4.43;3.80;;;12.50;99.90;;;;;;5050336;28;20428;-64
2023/01/07 10:10:37;;;;;;;3.53;3.33;;;12.50;99.90;;;;;;5051228;28;20476;-66
2023/01/07 10:13:12;;;;;;;4.00;3.70;;;12.60;99.90;;;;;;5048461;28;20508;-64
2023/01/07 10:15:41;;;;;;;3.90;3.70;;;12.70;99.90;;;;;;5072102;28;20412;-64
2023/01/07 10:18:13;;;;;;;3.80;3.57;;;12.70;99.90;;;;;;5058419;28;20771;-64
2023/01/07 10:20:48;;;;;;;4.13;3.83;;;12.80;99.90;;;;;;5055588;28;20421;-64
2023/01/07 10:23:27;;;;;;;4.20;3.90;;;12.80;99.90;;;;;;5038068;28;20513;-64
2023/01/07 10:25:55;;;;;;;4.17;3.97;;;12.90;99.90;;;;;;5054841;28;20725;-64
2023/01/07 10:28:33;;;;;;;4.00;3.80;;;12.80;99.90;;;;;;5056880;28;20467;-64
2023/01/07 10:31:00;;;;;;;4.50;4.20;;;13.00;99.90;;;;;;5074790;28;20397;-64
2023/01/07 10:33:30;;;;;;;4.30;4.00;;;13.10;99.90;;;;;;5075138;28;20767;-64
2023/01/07 10:36:31;;;;;;;4.30;4.00;;;13.30;99.90;;;;;;5074725;28;20461;-64
2023/01/07 10:39:10;;;;;;;4.30;4.00;;;13.40;99.90;;;;;;5057124;28;20826;-64
2023/01/07 10:42:03;;;;;;;4.17;3.97;;;13.40;99.90;;;;;;5055419;28;21554;-64
2023/01/07 10:44:47;;;;;;;3.93;3.73;;;13.70;99.90;;;;;;5057417;28;20841;-64
2023/01/07 10:47:33;;;;;;;4.70;4.40;;;13.80;99.90;;;;;;5056579;28;20435;-64
2023/01/07 10:50:11;;;;;;;4.10;3.90;;;13.90;99.90;;;;;;5072289;28;20446;-64
2023/01/07 10:52:45;;;;;;;4.80;4.50;;;14.20;99.90;;;;;;5068839;28;20487;-65
2023/01/07 10:55:29;;;;;;;4.10;3.80;;;14.30;99.90;;;;;;5055163;28;20404;-65
2023/01/07 10:57:55;;;;;;;3.80;3.60;;;14.40;99.90;;;;;;5054180;28;20403;-65
2023/01/07 11:00:23;;;;;;;3.73;3.53;;;14.70;99.90;;;;;;5053423;28;20445;-63
2023/01/07 11:02:56;;;;;;;3.90;3.70;;;14.60;99.90;;;;;;5053009;28;20208;-63
2023/01/07 11:05:35;;;;;;;3.30;3.20;;;14.50;99.90;;;;;;5053849;28;20422;-64
2023/01/07 11:08:03;;;;;;;4.30;4.00;;;14.70;99.90;;;;;;5039231;28;20755;-63
2023/01/07 11:10:35;;;;;;;4.00;3.80;;;15.00;99.90;;;;;;5052760;28;20524;-65
2023/01/07 11:13:17;;;;;;;4.30;4.00;;;15.20;99.90;;;;;;5054408;28;20416;-65
2023/01/07 11:15:49;;;;;;;3.70;3.50;;;15.30;99.90;;;;;;5039112;28;20503;-66
2023/01/07 11:18:23;;;;;;;3.60;3.40;;;15.50;99.20;;;;;;5061497;28;20438;-64
2023/01/07 11:20:50;;;;;;;3.67;3.47;;;15.50;97.40;;;;;;5051608;28;20472;-64
2023/01/07 11:23:52;;;;;;;3.73;3.53;;;15.40;97.60;;;;;;5051360;28;20429;-64
2023/01/07 11:26:31;;;;;;;3.70;3.40;;;15.50;98.60;;;;;;5012311;28;20411;-64
2023/01/07 11:28:56;;;;;;;3.53;3.40;;;15.70;98.10;;;;;;5052429;28;20450;-64
2023/01/07 11:31:51;;;;;;;3.70;3.50;;;15.50;96.90;;;;;;5074443;28;20475;-64
2023/01/07 11:34:31;;;;;;;3.63;3.43;;;15.40;97.80;;;;;;5060743;28;20603;-64
2023/01/07 11:36:57;;;;;;;3.57;3.47;;;15.50;98.20;;;;;;5053321;28;20475;-65
2023/01/07 11:39:26;;;;;;;3.50;3.30;;;15.70;97.80;;;;;;5053011;28;20487;-65
2023/01/07 11:41:58;;;;;;;3.60;3.40;;;15.70;96.90;;;;;;5053453;28;20432;-64
2023/01/07 11:44:24;;;;;;;17.70;15.80;;;15.70;97.50;;;;;;5062452;28;20417;-65
2023/01/07 11:46:52;;;;;;;27.40;22.40;;;15.60;97.50;;;;;;5053617;28;20475;-64
2023/01/07 11:49:43;;;;;;;13.00;11.10;;;15.80;96.70;;;;;;5054173;28;20841;-66
2023/01/07 11:52:17;;;;;;;22.57;17.30;;;15.70;96.10;;;;;;5051883;28;20459;-64
2023/01/07 11:54:50;;;;;;;33.90;24.87;;;15.70;96.50;;;;;;5052150;28;20495;-65
2023/01/07 11:57:24;;;;;;;12.80;10.90;;;15.70;96.80;;;;;;5050357;28;20433;-65
2023/01/07 12:00:13;;;;;;;3.50;3.27;;;15.70;96.00;;;;;;5052299;28;20406;-68
2023/01/07 12:02:43;;;;;;;3.60;3.40;;;15.60;95.90;;;;;;5053635;28;20494;-67
2023/01/07 12:05:25;;;;;;;3.53;3.13;;;15.70;96.00;;;;;;5051754;28;20417;-67
2023/01/07 12:07:51;;;;;;;2.90;2.80;;;15.50;95.60;;;;;;5050785;28;20478;-68
2023/01/07 12:10:30;;;;;;;3.37;3.17;;;15.20;96.10;;;;;;5052995;28;20479;-65
2023/01/07 12:12:58;;;;;;;3.23;3.07;;;15.20;96.60;;;;;;5052727;28;20409;-66
2023/01/07 12:15:28;;;;;;;3.13;2.83;;;15.30;96.50;;;;;;5053180;28;20838;-66
2023/01/07 12:18:16;;;;;;;3.17;3.07;;;15.30;95.30;;;;;;5052397;28;20405;-66
2023/01/07 12:21:20;;;;;;;2.70;2.60;;;15.20;95.60;;;;;;5051429;28;20750;-66
2023/01/07 12:24:25;;;;;;;2.47;2.37;;;15.40;95.10;;;;;;5049911;28;20448;-67
2023/01/07 12:27:15;;;;;;;2.70;2.60;;;15.40;94.70;;;;;;5052045;28;20854;-67
2023/01/07 12:30:19;;;;;;;2.77;2.53;;;15.50;94.70;;;;;;5050267;28;20472;-66
2023/01/07 12:32:56;;;;;;;2.60;2.50;;;15.40;94.20;;;;;;5051633;28;20532;-67
2023/01/07 12:35:26;;;;;;;2.77;2.67;;;15.00;94.40;;;;;;5058332;28;20451;-67
2023/01/07 12:38:03;;;;;;;5.70;3.03;;;15.00;95.30;;;;;;5046700;28;20447;-67
2023/01/07 12:40:40;;;;;;;2.47;2.37;;;15.10;95.30;;;;;;5052512;28;20504;-67
2023/01/07 12:43:21;;;;;;;3.63;2.43;;;15.10;94.60;;;;;;5051953;28;20430;-67
2023/01/07 12:46:00;;;;;;;2.43;2.33;;;15.00;94.90;;;;;;5052945;28;20409;-67
2023/01/07 12:48:41;;;;;;;2.60;2.50;;;14.70;94.60;;;;;;5032720;28;20952;-66
2023/01/07 12:51:18;;;;;;;2.20;2.20;;;14.30;96.40;;;;;;5032227;28;20393;-66
2023/01/07 12:53:52;;;;;;;2.60;2.50;;;14.30;96.70;;;;;;5061887;28;20440;-67
2023/01/07 12:56:31;;;;;;;2.40;2.40;;;14.30;96.80;;;;;;5052221;28;20431;-67
2023/01/07 12:59:08;;;;;;;3.27;3.07;;;14.40;96.60;;;;;;5052052;28;20396;-67
2023/01/07 13:01:40;;;;;;;2.70;2.60;;;14.40;96.60;;;;;;5052814;28;20391;-67
2023/01/07 13:04:23;;;;;;;2.77;2.67;;;14.20;96.60;;;;;;5051925;28;20487;-67